createdAt,value
2022-10-01T00:01:17.581Z,1152.3
2022-10-01T00:03:01.023Z,1150.4
2022-10-01T00:04:44.367Z,1147.1
2022-10-01T00:06:27.778Z,1146.1
2022-10-01T00:08:11.217Z,1144.5
2022-10-01T00:09:54.896Z,1143.7
2022-10-01T00:11:38.332Z,1142.2
2022-10-01T00:13:21.659Z,1139.8
2022-10-01T00:15:05.096Z,1134.6
2022-10-01T00:16:48.461Z,1135.2
2022-10-01T00:18:31.864Z,1134.5
2022-10-01T00:20:15.304Z,1133.6
2022-10-01T00:21:58.654Z,1135.5
2022-10-01T00:27:07.893Z,1134.6
2022-10-01T00:28:51.303Z,1135.5
2022-10-01T00:30:34.686Z,1137.4
2022-10-01T00:32:18.069Z,1133.1
2022-10-01T00:34:01.502Z,1129.7
2022-10-01T00:35:44.871Z,1126.7
2022-10-01T00:39:11.712Z,1123.6
2022-10-01T00:42:38.133Z,1116
2022-10-01T00:44:21.552Z,1115.4
2022-10-01T00:46:04.990Z,1114.3
2022-10-01T00:47:48.316Z,1112.7
2022-10-01T00:49:31.761Z,1108.5
2022-10-01T00:51:15.148Z,1107.2
2022-10-01T00:52:58.516Z,1107.5
2022-10-01T00:54:41.947Z,1105.1
2022-10-01T00:59:51.197Z,1104.8
2022-10-01T01:01:34.551Z,1105.2
2022-10-01T01:03:17.972Z,1106.7
2022-10-01T01:05:01.332Z,1106.4
2022-10-01T01:06:44.726Z,1104
2022-10-01T01:08:28.163Z,1101
2022-10-01T01:10:11.522Z,1100.6
2022-10-01T01:11:54.917Z,1101.8
2022-10-01T01:17:04.186Z,1098.5
2022-10-01T01:18:47.606Z,1098
2022-10-01T01:20:30.958Z,1096.4
2022-10-01T01:22:14.368Z,1096.7
2022-10-01T01:23:57.752Z,1097.3
2022-10-01T01:25:41.148Z,1100.8
2022-10-01T01:27:24.579Z,1101.5
2022-10-01T01:29:07.937Z,1098.4
2022-10-01T01:34:17.185Z,1090.6
2022-10-01T01:36:00.620Z,1087.6
2022-10-01T01:37:44.014Z,1084.7
2022-10-01T01:39:27.357Z,1082.5
2022-10-01T01:41:10.780Z,1083.7
2022-10-01T01:42:54.177Z,1083.8
2022-10-01T01:44:37.547Z,1085.8
2022-10-01T01:46:20.980Z,1084.4
2022-10-01T01:51:30.223Z,1074.1
2022-10-01T01:53:13.602Z,1072.5
2022-10-01T01:54:56.985Z,1071.1
2022-10-01T01:56:40.419Z,1072.3
2022-10-01T01:58:23.856Z,1070.4
2022-10-01T02:00:07.188Z,1068.3
2022-10-01T02:01:50.564Z,1065.6
2022-10-01T02:03:33.954Z,1068
2022-10-01T02:08:43.217Z,1072.5
2022-10-01T02:10:26.629Z,1071.4
2022-10-01T02:12:09.991Z,1068.8
2022-10-01T02:13:53.403Z,1066.4
2022-10-01T02:15:36.839Z,1062.4
2022-10-01T02:17:20.193Z,1063.1
2022-10-01T02:19:03.600Z,1067.3
2022-10-01T02:20:47.044Z,1063.8
2022-10-01T02:24:13.453Z,1063.8
2022-10-01T02:25:56.880Z,1065.8
2022-10-01T02:27:40.244Z,1064.8
2022-10-01T02:29:23.641Z,1062.5
2022-10-01T02:31:07.081Z,1060.5
2022-10-01T02:32:50.431Z,1061
2022-10-01T02:34:33.840Z,1059.8
2022-10-01T02:36:17.282Z,1059.3
2022-10-01T02:38:00.627Z,1059
2022-10-01T02:39:44.330Z,1057.5
2022-10-01T02:41:27.734Z,1053.4
2022-10-01T02:43:11.168Z,1052.2
2022-10-01T02:44:54.520Z,1052.5
2022-10-01T02:46:37.927Z,1052.5
2022-10-01T02:48:21.303Z,1052.1
2022-10-01T02:50:04.712Z,1051.2
2022-10-01T02:51:48.128Z,1050.4
2022-10-01T02:56:57.376Z,1044.9
2022-10-01T02:58:40.743Z,1042.2
2022-10-01T03:00:24.136Z,1041.7
2022-10-01T03:02:07.587Z,1040.3
2022-10-01T03:03:50.914Z,1038.7
2022-10-01T03:05:34.344Z,1034.1
2022-10-01T03:07:17.777Z,1031.7
2022-10-01T03:09:01.116Z,1032
2022-10-01T03:12:27.619Z,1032.5
2022-10-01T03:14:10.975Z,1033.5
2022-10-01T03:15:54.387Z,1029.2
2022-10-01T03:17:37.820Z,1024.6
2022-10-01T03:19:21.178Z,1021.8
2022-10-01T03:21:04.583Z,1021.6
2022-10-01T03:22:48.026Z,1022.8
2022-10-01T03:24:31.368Z,1020.2
2022-10-01T03:27:57.876Z,1023.5
2022-10-01T03:29:41.230Z,1024.2
2022-10-01T03:31:24.633Z,1028
2022-10-01T03:33:08.071Z,1030.4
2022-10-01T03:34:51.423Z,1030
2022-10-01T03:36:34.831Z,1028.6
2022-10-01T03:38:18.206Z,1028.8
2022-10-01T03:40:01.614Z,1026.8
2022-10-01T03:43:28.118Z,1024.9
2022-10-01T03:45:11.480Z,1024
2022-10-01T03:46:54.884Z,1027.6
2022-10-01T03:48:38.319Z,1028.2
2022-10-01T03:50:21.676Z,1030
2022-10-01T03:52:05.080Z,1030.6
2022-10-01T03:53:48.455Z,1027.3
2022-10-01T03:55:31.846Z,1023.3
2022-10-01T04:00:41.093Z,1024.4
2022-10-01T04:02:24.530Z,1021.3
2022-10-01T04:04:07.899Z,1021.5
2022-10-01T04:05:51.288Z,1018.4
2022-10-01T04:07:34.740Z,1015.3
2022-10-01T04:09:18.077Z,1012.5
2022-10-01T04:11:01.496Z,1010.5
2022-10-01T04:12:44.862Z,1009
2022-10-01T04:17:54.179Z,1007.3
2022-10-01T04:19:37.510Z,1007.6
2022-10-01T04:21:20.938Z,1008.5
2022-10-01T04:23:04.312Z,1006.1
2022-10-01T04:26:31.133Z,1007.5
2022-10-01T04:28:14.486Z,1006.4
2022-10-01T04:29:57.897Z,1006.4
2022-10-01T04:35:07.142Z,1007.2
2022-10-01T04:36:50.517Z,1008
2022-10-01T04:38:33.910Z,1006.5
2022-10-01T04:40:17.354Z,1007.7
2022-10-01T04:42:00.717Z,1004.3
2022-10-01T04:43:44.107Z,1001.5
2022-10-01T04:45:27.543Z,998.4
2022-10-01T04:47:10.904Z,995.3
2022-10-01T04:50:37.392Z,992
2022-10-01T04:52:20.767Z,989.4
2022-10-01T04:54:04.155Z,989.8
2022-10-01T04:55:47.623Z,989.3
2022-10-01T04:57:30.946Z,993.4
2022-10-01T04:59:14.357Z,993
2022-10-01T05:00:57.800Z,992.3
2022-10-01T05:02:41.131Z,993.2
2022-10-01T05:04:24.847Z,990.2
2022-10-01T05:06:08.239Z,988.8
2022-10-01T05:07:51.677Z,985
2022-10-01T05:09:35.119Z,985.5
2022-10-01T05:11:18.441Z,986.8
2022-10-01T05:14:45.231Z,987.3
2022-10-01T05:18:12.354Z,986
2022-10-01T05:19:55.769Z,984.6
2022-10-01T05:21:39.126Z,987.4
2022-10-01T05:23:22.522Z,986.1
2022-10-01T05:25:05.970Z,986.2
2022-10-01T05:26:49.314Z,985.4
2022-10-01T05:28:32.730Z,982.5
2022-10-01T05:30:16.101Z,978.4
2022-10-01T05:31:59.851Z,972.9
2022-10-01T05:33:43.204Z,970.7
2022-10-01T05:35:26.614Z,969.1
2022-10-01T05:37:10.051Z,967.5
2022-10-01T05:38:53.388Z,969.3
2022-10-01T05:40:36.814Z,969.1
2022-10-01T05:42:20.183Z,967
2022-10-01T05:44:03.578Z,965.6
2022-10-01T05:47:30.093Z,710.8
2022-10-01T05:49:13.454Z,496
2022-10-01T05:50:56.861Z,443.2
2022-10-01T05:52:40.234Z,436
2022-10-01T05:54:23.636Z,444
2022-10-01T05:56:07.064Z,462.3
2022-10-01T05:57:50.421Z,476.1
2022-10-01T05:59:33.825Z,479.3
2022-10-01T06:03:00.348Z,484.6
2022-10-01T06:04:43.691Z,486.8
2022-10-01T06:06:27.104Z,490
2022-10-01T06:08:10.479Z,492.1
2022-10-01T06:09:53.887Z,494
2022-10-01T06:11:37.307Z,496.5
2022-10-01T06:13:20.684Z,499.2
2022-10-01T06:15:04.077Z,503.6
2022-10-01T06:16:47.510Z,504
2022-10-01T06:18:31.217Z,503.5
2022-10-01T06:20:14.569Z,506.5
2022-10-01T06:21:57.974Z,507.3
2022-10-01T06:23:41.401Z,507.7
2022-10-01T06:25:24.753Z,511.3
2022-10-01T06:27:08.157Z,515.2
2022-10-01T06:28:51.602Z,517.2
2022-10-01T06:30:34.951Z,522.1
2022-10-01T06:35:44.187Z,530.7
2022-10-01T06:37:27.601Z,534.6
2022-10-01T06:39:10.991Z,537.1
2022-10-01T06:40:54.364Z,541
2022-10-01T06:42:37.804Z,541.4
2022-10-01T06:44:21.159Z,545.8
2022-10-01T06:46:04.566Z,549.5
2022-10-01T06:47:48.006Z,552.4
2022-10-01T06:51:14.437Z,556.1
2022-10-01T06:52:57.849Z,558.8
2022-10-01T06:54:41.212Z,560.1
2022-10-01T06:56:24.618Z,562.8
2022-10-01T06:58:08.053Z,569.1
2022-10-01T06:59:51.418Z,572.1
2022-10-01T07:01:34.816Z,574.5
2022-10-01T07:03:18.192Z,579.5
2022-10-01T07:08:27.437Z,591.1
2022-10-01T07:10:10.837Z,593.2
2022-10-01T07:11:54.256Z,596.2
2022-10-01T07:13:37.635Z,601.3
2022-10-01T07:15:21.025Z,608
2022-10-01T07:17:04.461Z,610.7
2022-10-01T07:18:47.804Z,615
2022-10-01T07:20:31.219Z,617.7
2022-10-01T07:23:57.681Z,628.2
2022-10-01T07:25:41.071Z,636.6
2022-10-01T07:27:24.569Z,636.1
2022-10-01T07:29:07.883Z,639.3
2022-10-01T07:30:51.289Z,700.6
2022-10-01T07:32:34.706Z,753.2
2022-10-01T07:34:18.061Z,750.4
2022-10-01T07:36:01.465Z,742.1
2022-10-01T07:39:27.926Z,761.3
2022-10-01T07:41:11.325Z,786.6
2022-10-01T07:42:54.751Z,806.5
2022-10-01T07:44:38.131Z,810
2022-10-01T07:46:21.524Z,809.1
2022-10-01T07:48:04.958Z,811.3
2022-10-01T07:49:48.328Z,820
2022-10-01T07:51:31.728Z,825.1
2022-10-01T07:54:58.235Z,815.7
2022-10-01T07:56:41.589Z,812.2
2022-10-01T07:58:25.003Z,811.1
2022-10-01T08:00:08.370Z,810
2022-10-01T08:01:51.778Z,811.6
2022-10-01T08:03:35.203Z,817.1
2022-10-01T08:05:18.561Z,819.7
2022-10-01T08:07:01.972Z,824.5
2022-10-01T08:10:28.423Z,829.8
2022-10-01T08:12:11.830Z,835.3
2022-10-01T08:13:55.249Z,851.8
2022-10-01T08:15:38.631Z,869.6
2022-10-01T08:17:22.019Z,891.6
2022-10-01T08:19:05.448Z,910
2022-10-01T08:20:48.802Z,912.6
2022-10-01T08:22:32.212Z,914.6
2022-10-01T08:24:15.919Z,923.1
2022-10-01T08:25:59.333Z,928.4
2022-10-01T08:27:42.687Z,929.8
2022-10-01T08:29:26.092Z,934.1
2022-10-01T08:31:09.535Z,936.8
2022-10-01T08:32:52.894Z,937.6
2022-10-01T08:34:36.305Z,931
2022-10-01T08:36:19.743Z,922.1
2022-10-01T08:39:46.148Z,913.8
2022-10-01T08:41:29.584Z,910.5
2022-10-01T08:43:12.946Z,905.2
2022-10-01T08:44:56.353Z,902.4
2022-10-01T08:46:39.785Z,902.7
2022-10-01T08:48:23.139Z,902.8
2022-10-01T08:50:06.549Z,897.4
2022-10-01T08:51:49.989Z,887.4
2022-10-01T08:56:59.168Z,870.6
2022-10-01T08:58:42.559Z,867.1
2022-10-01T09:00:25.987Z,860.8
2022-10-01T09:02:09.356Z,863.7
2022-10-01T09:03:52.761Z,863
2022-10-01T09:05:36.186Z,857.7
2022-10-01T09:07:19.541Z,851
2022-10-01T09:09:02.951Z,853.5
2022-10-01T09:10:46.645Z,858.8
2022-10-01T09:12:30.073Z,860.4
2022-10-01T09:14:13.424Z,861.6
2022-10-01T09:15:56.834Z,886
2022-10-01T09:17:40.272Z,882.3
2022-10-01T09:19:23.620Z,869.2
2022-10-01T09:21:07.041Z,878.5
2022-10-01T09:22:50.419Z,886.1
2022-10-01T09:27:59.652Z,878.7
2022-10-01T09:29:43.046Z,870.3
2022-10-01T09:31:26.488Z,867.8
2022-10-01T09:33:09.839Z,864.2
2022-10-01T09:34:53.244Z,860.7
2022-10-01T09:36:36.686Z,855.7
2022-10-01T09:38:20.039Z,863
2022-10-01T09:40:03.453Z,879.2
2022-10-01T09:41:47.167Z,933.9
2022-10-01T09:43:30.578Z,918.5
2022-10-01T09:45:13.915Z,903.1
2022-10-01T09:46:57.334Z,895.8
2022-10-01T09:48:40.703Z,889.3
2022-10-01T09:50:24.109Z,885.7
2022-10-01T09:53:50.974Z,872.7
2022-10-01T09:57:17.388Z,887.4
2022-10-01T09:59:00.823Z,905.8
2022-10-01T10:00:44.173Z,923.4
2022-10-01T10:02:27.601Z,930.4
2022-10-01T10:04:11.020Z,932.7
2022-10-01T10:05:54.424Z,931
2022-10-01T10:07:37.916Z,924.8
2022-10-01T10:09:21.283Z,915.7
2022-10-01T10:12:47.782Z,906.4
2022-10-01T10:14:31.210Z,904.3
2022-10-01T10:16:14.560Z,900.6
2022-10-01T10:17:57.824Z,894
2022-10-01T10:19:41.357Z,889.7
2022-10-01T10:21:24.729Z,890.1
2022-10-01T10:23:08.149Z,886.2
2022-10-01T10:24:51.398Z,883.3
2022-10-01T10:28:17.876Z,874.8
2022-10-01T10:30:01.459Z,871.3
2022-10-01T10:31:44.666Z,867.5
2022-10-01T10:33:28.243Z,864.5
2022-10-01T10:35:11.639Z,862.3
2022-10-01T10:36:55.010Z,860.6
2022-10-01T10:38:38.434Z,860.2
2022-10-01T10:40:21.680Z,857.2
2022-10-01T10:42:05.421Z,855.8
2022-10-01T10:43:48.904Z,855.4
2022-10-01T10:45:32.156Z,853.8
2022-10-01T10:47:15.765Z,851.1
2022-10-01T10:48:59.069Z,850.5
2022-10-01T10:50:42.516Z,850.3
2022-10-01T10:52:25.862Z,846
2022-10-01T10:54:09.267Z,868.4
2022-10-01T10:59:18.362Z,961.7
2022-10-01T11:01:01.880Z,972.5
2022-10-01T11:02:45.175Z,972
2022-10-01T11:04:28.570Z,963.3
2022-10-01T11:06:12.036Z,965.4
2022-10-01T11:07:55.355Z,970.2
2022-10-01T11:09:38.769Z,980
2022-10-01T11:11:22.142Z,979.3
2022-10-01T11:16:31.380Z,1030.3
2022-10-01T11:18:14.776Z,1044.2
2022-10-01T11:19:58.218Z,1054.5
2022-10-01T11:21:41.570Z,1053.5
2022-10-01T11:23:24.976Z,1058.6
2022-10-01T11:25:08.374Z,1052.1
2022-10-01T11:26:51.751Z,1045.6
2022-10-01T11:28:35.182Z,1043.3
2022-10-01T11:33:44.422Z,1037.8
2022-10-01T11:35:27.878Z,1040
2022-10-01T11:37:11.202Z,1047.3
2022-10-01T11:38:54.648Z,1063.7
2022-10-01T11:40:38.017Z,1077.8
2022-10-01T11:42:21.398Z,1081.6
2022-10-01T11:44:04.834Z,1093.5
2022-10-01T11:45:48.169Z,1096
2022-10-01T11:50:57.417Z,1094.5
2022-10-01T11:52:40.828Z,1095.1
2022-10-01T11:54:24.203Z,1094.4
2022-10-01T11:56:07.639Z,1090.3
2022-10-01T11:57:51.085Z,1091.2
2022-10-01T11:59:34.386Z,1104.7
2022-10-01T12:01:17.796Z,1119.1
2022-10-01T12:03:01.233Z,1111.7
2022-10-01T12:06:27.714Z,1091.5
2022-10-01T12:08:11.076Z,1098
2022-10-01T12:09:54.457Z,1116.5
2022-10-01T12:11:37.853Z,1125
2022-10-01T12:13:21.280Z,1131.4
2022-10-01T12:15:04.696Z,1133.5
2022-10-01T12:16:48.052Z,1133.6
2022-10-01T12:18:31.586Z,1131.4
2022-10-01T12:21:57.903Z,1124.7
2022-10-01T12:23:41.326Z,1123.1
2022-10-01T12:25:24.706Z,1122
2022-10-01T12:27:08.099Z,1121.5
2022-10-01T12:28:51.527Z,1121.7
2022-10-01T12:30:34.888Z,1123.2
2022-10-01T12:32:18.292Z,1124.1
2022-10-01T12:34:01.733Z,1130
2022-10-01T12:37:28.211Z,1152.3
2022-10-01T12:39:11.576Z,1159.5
2022-10-01T12:40:54.947Z,1159.5
2022-10-01T12:42:38.387Z,1156.7
2022-10-01T12:44:21.827Z,1159
2022-10-01T12:46:05.149Z,1161.2
2022-10-01T12:47:48.542Z,1161.2
2022-10-01T12:49:32.057Z,1161.5
2022-10-01T12:52:58.479Z,1167.9
2022-10-01T12:54:41.834Z,1165.6
2022-10-01T12:56:25.300Z,1164.2
2022-10-01T12:58:08.579Z,1161.1
2022-10-01T12:59:52.073Z,1165.6
2022-10-01T13:01:35.381Z,1174.5
2022-10-01T13:03:18.787Z,1186.5
2022-10-01T13:05:02.162Z,1195.4
2022-10-01T13:08:28.650Z,1208.2
2022-10-01T13:10:12.074Z,1215.7
2022-10-01T13:11:55.434Z,1218.5
2022-10-01T13:13:38.833Z,1224.2
2022-10-01T13:15:22.270Z,1233.8
2022-10-01T13:17:05.632Z,1242.7
2022-10-01T13:18:49.059Z,1241.2
2022-10-01T13:20:32.412Z,1241.7
2022-10-01T13:23:58.902Z,1247.1
2022-10-01T13:25:42.324Z,1252.2
2022-10-01T13:27:25.677Z,1255.3
2022-10-01T13:29:09.072Z,1255.6
2022-10-01T13:30:52.552Z,1251.8
2022-10-01T13:32:35.877Z,1255.4
2022-10-01T13:34:19.280Z,1261.4
2022-10-01T13:36:02.725Z,1267.3
2022-10-01T13:41:11.971Z,1270.4
2022-10-01T13:42:55.321Z,1265.7
2022-10-01T13:44:38.746Z,1257
2022-10-01T13:46:22.143Z,1247.2
2022-10-01T13:48:05.615Z,1244.4
2022-10-01T13:49:48.925Z,1243.3
2022-10-01T13:51:32.425Z,1242.1
2022-10-01T13:53:15.726Z,1237.4
2022-10-01T13:56:42.208Z,1240.8
2022-10-01T13:58:25.591Z,1239.8
2022-10-01T14:00:08.971Z,1244.4
2022-10-01T14:01:52.414Z,1246.5
2022-10-01T14:03:35.824Z,1247.8
2022-10-01T14:05:19.218Z,1245.4
2022-10-01T14:07:02.527Z,1240
2022-10-01T14:08:45.962Z,1239
2022-10-01T14:13:55.182Z,1230
2022-10-01T14:15:38.613Z,1229.8
2022-10-01T14:17:21.977Z,1234
2022-10-01T14:19:05.391Z,1232.5
2022-10-01T14:20:48.820Z,1227
2022-10-01T14:22:32.261Z,1222.6
2022-10-01T14:24:15.581Z,1220.7
2022-10-01T14:25:58.956Z,1216.7
2022-10-01T14:31:08.205Z,1214.2
2022-10-01T14:32:51.613Z,1210.4
2022-10-01T14:34:35.026Z,1207.2
2022-10-01T14:36:18.383Z,1207.1
2022-10-01T14:38:01.789Z,1204.7
2022-10-01T14:39:45.254Z,1202.5
2022-10-01T14:41:28.687Z,1204.1
2022-10-01T14:43:11.993Z,1205.2
2022-10-01T14:48:21.235Z,1228
2022-10-01T14:50:04.611Z,1241.5
2022-10-01T14:51:47.992Z,1246.7
2022-10-01T14:53:31.436Z,1255.3
2022-10-01T14:55:14.793Z,1272.8
2022-10-01T14:56:58.207Z,1291.1
2022-10-01T14:58:41.674Z,1306
2022-10-01T15:00:24.993Z,1317.8
2022-10-01T15:03:51.515Z,1326.5
2022-10-01T15:05:34.842Z,1314.6
2022-10-01T15:07:18.244Z,1302.1
2022-10-01T15:09:01.683Z,1294.7
2022-10-01T15:10:45.060Z,1298.1
2022-10-01T15:12:28.443Z,1294.2
2022-10-01T15:14:11.885Z,1291
2022-10-01T15:15:55.253Z,1289
2022-10-01T15:19:21.729Z,1283.6
2022-10-01T15:21:05.157Z,1284.3
2022-10-01T15:22:48.509Z,1288.4
2022-10-01T15:24:31.932Z,1285.2
2022-10-01T15:26:15.317Z,1282.1
2022-10-01T15:27:58.698Z,1277.6
2022-10-01T15:29:42.135Z,1279
2022-10-01T15:31:25.593Z,1279.7
2022-10-01T15:34:51.976Z,1294.7
2022-10-01T15:36:35.356Z,1300.3
2022-10-01T15:38:18.774Z,1302
2022-10-01T15:40:02.174Z,1292
2022-10-01T15:41:45.562Z,1289.7
2022-10-01T15:43:28.944Z,1280.3
2022-10-01T15:45:12.415Z,1279
2022-10-01T15:46:55.733Z,1279.7
2022-10-01T15:50:22.229Z,1284
2022-10-01T15:52:05.593Z,1285.2
2022-10-01T15:53:49.010Z,1280.3
2022-10-01T15:55:32.441Z,1268.1
2022-10-01T15:57:15.792Z,1262.4
2022-10-01T15:58:59.209Z,1257.8
2022-10-01T16:00:42.627Z,1256.1
2022-10-01T16:02:25.990Z,1257.4
2022-10-01T16:05:52.469Z,1264.9
2022-10-01T16:07:35.847Z,1262.5
2022-10-01T16:09:19.257Z,1258.4
2022-10-01T16:11:02.676Z,1253.1
2022-10-01T16:12:46.059Z,1240.2
2022-10-01T16:14:29.435Z,1228.5
2022-10-01T16:16:12.875Z,1224
2022-10-01T16:17:56.231Z,1223
2022-10-01T16:21:22.778Z,1232.3
2022-10-01T16:23:06.161Z,1241.5
2022-10-01T16:24:49.492Z,1249.3
2022-10-01T16:26:33.054Z,1258.1
2022-10-01T16:28:16.295Z,1266.6
2022-10-01T16:29:59.686Z,1283.2
2022-10-01T16:31:43.123Z,1295.7
2022-10-01T16:33:26.553Z,1304.2
2022-10-01T16:35:10.249Z,1307.7
2022-10-01T16:36:53.614Z,1309.1
2022-10-01T16:38:37.097Z,1320
2022-10-01T16:40:20.412Z,1325.7
2022-10-01T16:42:03.810Z,1335.2
2022-10-01T16:45:30.626Z,1346.1
2022-10-01T16:47:13.998Z,1349
2022-10-01T16:50:40.494Z,1353.2
2022-10-01T16:52:23.872Z,1351.3
2022-10-01T16:54:07.285Z,1355.1
2022-10-01T16:55:50.617Z,1359.3
2022-10-01T16:57:34.021Z,1360.2
2022-10-01T16:59:17.465Z,1360.5
2022-10-01T17:01:00.924Z,1362.6
2022-10-01T17:02:44.226Z,1363.6
2022-10-01T17:06:10.784Z,1366.3
2022-10-01T17:07:54.070Z,1372.2
2022-10-01T17:09:37.527Z,1383.3
2022-10-01T17:11:20.995Z,1385.3
2022-10-01T17:13:04.323Z,1382.8
2022-10-01T17:14:47.702Z,1387.1
2022-10-01T17:16:31.064Z,1390.4
2022-10-01T17:18:14.571Z,1396.2
2022-10-01T17:19:58.169Z,1391.8
2022-10-01T17:21:41.672Z,1389.3
2022-10-01T17:23:24.977Z,1394.6
2022-10-01T17:25:08.364Z,1396.6
2022-10-01T17:26:51.789Z,1387.8
2022-10-01T17:28:35.175Z,1389.4
2022-10-01T17:30:18.569Z,1387.8
2022-10-01T17:32:01.992Z,1389.5
2022-10-01T17:35:28.504Z,1401.4
2022-10-01T17:37:11.893Z,1415
2022-10-01T17:38:55.207Z,1418.4
2022-10-01T17:40:38.627Z,1418.3
2022-10-01T17:42:22.044Z,1411.1
2022-10-01T17:45:48.799Z,1399.1
2022-10-01T17:47:32.235Z,1401.2
2022-10-01T17:50:58.676Z,1411.8
2022-10-01T17:52:42.080Z,1414.3
2022-10-01T17:54:25.460Z,1424.7
2022-10-01T17:56:08.860Z,1426.6
2022-10-01T17:57:52.284Z,1427
2022-10-01T17:59:35.656Z,1428.2
2022-10-01T18:01:19.056Z,1433.7
2022-10-01T18:03:02.554Z,1444.1
2022-10-01T18:06:29.015Z,1435.6
2022-10-01T18:08:12.325Z,1428.8
2022-10-01T18:09:55.769Z,1425.1
2022-10-01T18:11:39.194Z,1423.1
2022-10-01T18:13:22.686Z,1421.3
2022-10-01T18:15:06.035Z,1420.7
2022-10-01T18:16:49.465Z,1418
2022-10-01T18:18:32.743Z,1418
2022-10-01T18:21:59.321Z,1410.6
2022-10-01T18:23:42.747Z,1408.8
2022-10-01T18:25:26.042Z,1404
2022-10-01T18:27:09.483Z,1400.2
2022-10-01T18:28:52.926Z,1399.2
2022-10-01T18:30:36.287Z,1395
2022-10-01T18:32:19.689Z,1392.1
2022-10-01T18:34:03.003Z,1392
2022-10-01T18:37:29.553Z,1390.3
2022-10-01T18:39:12.826Z,1384.7
2022-10-01T18:40:56.321Z,1384.3
2022-10-01T18:42:39.621Z,1388.8
2022-10-01T18:44:23.027Z,1393.4
2022-10-01T18:46:06.522Z,1391.7
2022-10-01T18:47:49.861Z,1388.5
2022-10-01T18:49:33.254Z,1390
2022-10-01T18:54:42.473Z,1401.6
2022-10-01T18:56:25.919Z,1406.5
2022-10-01T18:58:09.242Z,1409.6
2022-10-01T18:59:52.686Z,1412.5
2022-10-01T19:01:36.034Z,1416.4
2022-10-01T19:03:19.432Z,1419.8
2022-10-01T19:05:02.899Z,1420.1
2022-10-01T19:06:46.225Z,1419.1
2022-10-01T19:11:55.562Z,1432
2022-10-01T19:13:38.882Z,1438
2022-10-01T19:15:22.252Z,1438.8
2022-10-01T19:17:05.693Z,1434.6
2022-10-01T19:18:49.099Z,1430.1
2022-10-01T19:20:32.470Z,1429.2
2022-10-01T19:22:15.850Z,1427.5
2022-10-01T19:23:59.290Z,1425.4
2022-10-01T19:29:08.526Z,1436.9
2022-10-01T19:30:51.894Z,1438.5
2022-10-01T19:32:35.325Z,1435.6
2022-10-01T19:34:18.749Z,1437.3
2022-10-01T19:36:02.121Z,1439.3
2022-10-01T19:37:45.494Z,1442.6
2022-10-01T19:39:28.898Z,1445.1
2022-10-01T19:41:12.267Z,1443.8
2022-10-01T19:44:38.774Z,1441.4
2022-10-01T19:46:22.131Z,1441
2022-10-01T19:48:05.540Z,1440.3
2022-10-01T19:49:48.975Z,1446.3
2022-10-01T19:51:32.310Z,1457
2022-10-01T19:53:15.739Z,1463.4
2022-10-01T19:54:59.138Z,1461.4
2022-10-01T19:56:42.500Z,1457.2
2022-10-01T19:58:25.943Z,1454
2022-10-01T20:00:09.623Z,1452
2022-10-01T20:01:52.999Z,1446.5
2022-10-01T20:03:36.398Z,1445.3
2022-10-01T20:05:19.824Z,1441.6
2022-10-01T20:07:03.205Z,1442.5
2022-10-01T20:08:46.597Z,1440.4
2022-10-01T20:10:30.027Z,1442.6
2022-10-01T20:12:13.390Z,1446.6
2022-10-01T20:17:22.620Z,1467.5
2022-10-01T20:19:06.840Z,1468.8
2022-10-01T20:20:49.499Z,1470.4
2022-10-01T20:22:32.843Z,1467.4
2022-10-01T20:24:16.229Z,1460.8
2022-10-01T20:25:59.618Z,1458.1
2022-10-01T20:27:43.000Z,1456.8
2022-10-01T20:29:26.442Z,1454.8
2022-10-01T20:34:35.681Z,1447.4
2022-10-01T20:36:19.040Z,1438.1
2022-10-01T20:38:02.449Z,1430.5
2022-10-01T20:39:45.918Z,1426.8
2022-10-01T20:41:29.225Z,1424.7
2022-10-01T20:43:12.672Z,1420.7
2022-10-01T20:44:56.026Z,1419.6
2022-10-01T20:46:39.417Z,1419.1
2022-10-01T20:51:48.672Z,1409.2
2022-10-01T20:53:32.090Z,1410.3
2022-10-01T20:55:15.469Z,1406.2
2022-10-01T20:56:58.857Z,1406.3
2022-10-01T20:58:42.288Z,1407.2
2022-10-01T21:00:25.661Z,1407.3
2022-10-01T21:02:09.051Z,1407.8
2022-10-01T21:03:52.496Z,1405.8
2022-10-01T21:07:18.922Z,1398.2
2022-10-01T21:09:02.337Z,1391.3
2022-10-01T21:10:45.700Z,1388.8
2022-10-01T21:12:29.125Z,1387.7
2022-10-01T21:14:12.576Z,1386.8
2022-10-01T21:15:55.899Z,1383.4
2022-10-01T21:17:39.307Z,1379.5
2022-10-01T21:19:22.744Z,1379.3
2022-10-01T21:22:49.169Z,1372.3
2022-10-01T21:24:32.585Z,1368.7
2022-10-01T21:26:15.959Z,1369.6
2022-10-01T21:27:59.349Z,1370.2
2022-10-01T21:29:42.794Z,1368.2
2022-10-01T21:31:26.151Z,1366.4
2022-10-01T21:33:09.553Z,1366.4
2022-10-01T21:34:52.994Z,1366.1
2022-10-01T21:38:19.492Z,1361.1
2022-10-01T21:40:02.831Z,1358.8
2022-10-01T21:41:46.205Z,1356.5
2022-10-01T21:43:29.587Z,1353
2022-10-01T21:45:13.036Z,1351.6
2022-10-01T21:46:56.410Z,1347.5
2022-10-01T21:48:39.810Z,1347.1
2022-10-01T21:50:23.258Z,1342.8
2022-10-01T21:55:32.480Z,1341.6
2022-10-01T21:57:15.815Z,1336.5
2022-10-01T21:58:59.315Z,1334.5
2022-10-01T22:00:42.608Z,1332.4
2022-10-01T22:02:26.000Z,1329.4
2022-10-01T22:04:09.454Z,1326.3
2022-10-01T22:05:52.876Z,1322.4
2022-10-01T22:07:36.203Z,1322
2022-10-01T22:11:02.668Z,1323.9
2022-10-01T22:12:46.056Z,1321.1
2022-10-01T22:14:29.482Z,1324.1
2022-10-01T22:16:12.855Z,1326.7
2022-10-01T22:17:56.289Z,1327.3
2022-10-01T22:19:39.685Z,1327.8
2022-10-01T22:21:23.043Z,1327.3
2022-10-01T22:23:06.450Z,1325.3
2022-10-01T22:28:15.695Z,1319.1
2022-10-01T22:29:59.154Z,1320.3
2022-10-01T22:31:42.463Z,1323.1
2022-10-01T22:33:25.895Z,1322.1
2022-10-01T22:35:09.272Z,1321.7
2022-10-01T22:36:52.660Z,1319.5
2022-10-01T22:38:36.116Z,1318.3
2022-10-01T22:40:19.458Z,1318.5
2022-10-01T22:45:28.713Z,1314
2022-10-01T22:47:12.101Z,1314.8
2022-10-01T22:48:55.550Z,1314
2022-10-01T22:50:38.893Z,1313.1
2022-10-01T22:52:22.318Z,1310.7
2022-10-01T22:54:05.760Z,1307.8
2022-10-01T22:55:49.075Z,1305.2
2022-10-01T22:57:32.508Z,1302.2
2022-10-01T23:02:41.755Z,1306.2
2022-10-01T23:04:25.119Z,1304.1
2022-10-01T23:06:08.508Z,1303.3
2022-10-01T23:07:51.952Z,1301
2022-10-01T23:09:35.307Z,1300.6
2022-10-01T23:11:18.730Z,1297.1
2022-10-01T23:13:02.156Z,1294
2022-10-01T23:14:45.490Z,1292.5
2022-10-01T23:18:11.995Z,1288.8
2022-10-01T23:19:55.363Z,1285.2
2022-10-01T23:21:38.759Z,1282.4
2022-10-01T23:23:22.197Z,1283.3
2022-10-01T23:25:05.544Z,1284.6
2022-10-01T23:26:48.962Z,1287.2
2022-10-01T23:28:32.402Z,1290
2022-10-01T23:30:15.738Z,1288.8
2022-10-01T23:33:42.246Z,1283.8
2022-10-01T23:35:25.617Z,1282
2022-10-01T23:37:09.016Z,1279.5
2022-10-01T23:38:52.450Z,1278.3
2022-10-01T23:40:35.818Z,1281.8
2022-10-01T23:42:19.209Z,1283.8
2022-10-01T23:44:02.650Z,1282.8
2022-10-01T23:45:45.996Z,1282.3
2022-10-01T23:50:55.256Z,1272.8
2022-10-01T23:52:38.655Z,1269.2
2022-10-01T23:54:22.036Z,1267
2022-10-01T23:56:05.426Z,1267.1
2022-10-01T23:57:48.855Z,1265.7
2022-10-01T23:59:32.220Z,1262.3
